sensor_id;sensor_type;location;lat;lon;timestamp;P1;durP1;ratioP1;P2;durP2;ratioP2
9138;SDS011;4604;48.616;9.548;2024-01-30T00:01:51;9.33;;;6.07;;
9138;SDS011;4604;48.616;9.548;2024-01-30T00:04:17;9.70;;;6.23;;
9138;SDS011;4604;48.616;9.548;2024-01-30T00:06:45;11.70;;;5.50;;
9138;SDS011;4604;48.616;9.548;2024-01-30T00:09:12;8.93;;;5.90;;
9138;SDS011;4604;48.616;9.548;2024-01-30T00:11:39;13.50;;;6.33;;
9138;SDS011;4604;48.616;9.548;2024-01-30T00:14:06;8.27;;;5.97;;
9138;SDS011;4604;48.616;9.548;2024-01-30T00:16:32;9.90;;;5.87;;
9138;SDS011;4604;48.616;9.548;2024-01-30T00:18:59;9.07;;;6.03;;
9138;SDS011;4604;48.616;9.548;2024-01-30T00:21:27;10.77;;;6.43;;
9138;SDS011;4604;48.616;9.548;2024-01-30T00:23:55;10.43;;;6.87;;
9138;SDS011;4604;48.616;9.548;2024-01-30T00:26:22;8.97;;;6.20;;
9138;SDS011;4604;48.616;9.548;2024-01-30T00:28:48;10.03;;;6.73;;
9138;SDS011;4604;48.616;9.548;2024-01-30T00:31:15;13.07;;;7.53;;
9138;SDS011;4604;48.616;9.548;2024-01-30T00:33:42;12.63;;;6.93;;
9138;SDS011;4604;48.616;9.548;2024-01-30T00:36:09;15.40;;;7.60;;
9138;SDS011;4604;48.616;9.548;2024-01-30T00:38:36;12.20;;;7.07;;
9138;SDS011;4604;48.616;9.548;2024-01-30T00:41:05;10.63;;;7.20;;
9138;SDS011;4604;48.616;9.548;2024-01-30T00:43:31;12.40;;;7.40;;
9138;SDS011;4604;48.616;9.548;2024-01-30T00:45:58;13.20;;;7.10;;
9138;SDS011;4604;48.616;9.548;2024-01-30T00:48:24;10.97;;;6.97;;
9138;SDS011;4604;48.616;9.548;2024-01-30T00:50:51;10.13;;;6.97;;
9138;SDS011;4604;48.616;9.548;2024-01-30T00:53:20;12.77;;;7.50;;
9138;SDS011;4604;48.616;9.548;2024-01-30T00:55:47;10.40;;;6.87;;
9138;SDS011;4604;48.616;9.548;2024-01-30T00:58:14;9.70;;;6.27;;
9138;SDS011;4604;48.616;9.548;2024-01-30T01:00:41;10.20;;;6.30;;
9138;SDS011;4604;48.616;9.548;2024-01-30T01:03:08;12.77;;;5.90;;
9138;SDS011;4604;48.616;9.548;2024-01-30T01:05:34;17.37;;;9.03;;
9138;SDS011;4604;48.616;9.548;2024-01-30T01:08:01;14.93;;;8.27;;
9138;SDS011;4604;48.616;9.548;2024-01-30T01:10:27;12.10;;;6.80;;
9138;SDS011;4604;48.616;9.548;2024-01-30T01:12:54;10.13;;;5.37;;
9138;SDS011;4604;48.616;9.548;2024-01-30T01:15:22;6.43;;;4.20;;
9138;SDS011;4604;48.616;9.548;2024-01-30T01:17:48;7.20;;;4.97;;
9138;SDS011;4604;48.616;9.548;2024-01-30T01:20:15;7.77;;;5.13;;
9138;SDS011;4604;48.616;9.548;2024-01-30T01:22:42;9.57;;;5.80;;
9138;SDS011;4604;48.616;9.548;2024-01-30T01:25:08;9.37;;;5.17;;
9138;SDS011;4604;48.616;9.548;2024-01-30T01:27:35;7.37;;;5.03;;
9138;SDS011;4604;48.616;9.548;2024-01-30T01:30:06;10.23;;;5.03;;
9138;SDS011;4604;48.616;9.548;2024-01-30T01:32:36;10.30;;;5.77;;
9138;SDS011;4604;48.616;9.548;2024-01-30T01:35:03;9.67;;;5.03;;
9138;SDS011;4604;48.616;9.548;2024-01-30T01:37:30;10.33;;;4.67;;
9138;SDS011;4604;48.616;9.548;2024-01-30T01:39:57;7.07;;;4.03;;
9138;SDS011;4604;48.616;9.548;2024-01-30T01:42:23;5.17;;;3.80;;
9138;SDS011;4604;48.616;9.548;2024-01-30T01:44:50;5.67;;;3.50;;
9138;SDS011;4604;48.616;9.548;2024-01-30T01:47:17;6.87;;;4.60;;
9138;SDS011;4604;48.616;9.548;2024-01-30T01:49:45;5.90;;;4.20;;
9138;SDS011;4604;48.616;9.548;2024-01-30T01:52:10;9.10;;;4.27;;
9138;SDS011;4604;48.616;9.548;2024-01-30T01:54:37;6.57;;;4.17;;
9138;SDS011;4604;48.616;9.548;2024-01-30T01:57:04;6.83;;;4.10;;
9138;SDS011;4604;48.616;9.548;2024-01-30T01:59:31;5.33;;;3.73;;
9138;SDS011;4604;48.616;9.548;2024-01-30T02:01:58;6.30;;;3.60;;
9138;SDS011;4604;48.616;9.548;2024-01-30T02:04:26;5.53;;;3.40;;
9138;SDS011;4604;48.616;9.548;2024-01-30T02:06:54;5.27;;;3.60;;
9138;SDS011;4604;48.616;9.548;2024-01-30T02:09:21;5.53;;;3.17;;
9138;SDS011;4604;48.616;9.548;2024-01-30T02:11:47;5.37;;;3.67;;
9138;SDS011;4604;48.616;9.548;2024-01-30T02:14:14;6.00;;;3.90;;
9138;SDS011;4604;48.616;9.548;2024-01-30T02:16:41;5.77;;;3.90;;
9138;SDS011;4604;48.616;9.548;2024-01-30T02:19:08;5.47;;;3.67;;
9138;SDS011;4604;48.616;9.548;2024-01-30T02:21:35;5.20;;;3.77;;
9138;SDS011;4604;48.616;9.548;2024-01-30T02:24:02;6.03;;;4.00;;
9138;SDS011;4604;48.616;9.548;2024-01-30T02:26:32;7.70;;;4.37;;
9138;SDS011;4604;48.616;9.548;2024-01-30T02:28:59;6.77;;;4.47;;
9138;SDS011;4604;48.616;9.548;2024-01-30T02:31:25;6.90;;;4.47;;
9138;SDS011;4604;48.616;9.548;2024-01-30T02:33:52;5.53;;;4.40;;
9138;SDS011;4604;48.616;9.548;2024-01-30T02:36:19;8.47;;;4.53;;
9138;SDS011;4604;48.616;9.548;2024-01-30T02:38:47;9.77;;;4.90;;
9138;SDS011;4604;48.616;9.548;2024-01-30T02:41:13;8.07;;;5.30;;
9138;SDS011;4604;48.616;9.548;2024-01-30T02:43:40;10.57;;;6.33;;
9138;SDS011;4604;48.616;9.548;2024-01-30T02:46:06;9.30;;;5.70;;
9138;SDS011;4604;48.616;9.548;2024-01-30T02:48:33;10.40;;;6.30;;
9138;SDS011;4604;48.616;9.548;2024-01-30T02:51:00;8.43;;;5.40;;
9138;SDS011;4604;48.616;9.548;2024-01-30T02:53:26;7.70;;;5.20;;
9138;SDS011;4604;48.616;9.548;2024-01-30T02:55:54;8.23;;;5.60;;
9138;SDS011;4604;48.616;9.548;2024-01-30T02:58:20;7.40;;;5.00;;
9138;SDS011;4604;48.616;9.548;2024-01-30T03:00:47;10.40;;;6.23;;
9138;SDS011;4604;48.616;9.548;2024-01-30T03:03:14;8.27;;;5.40;;
9138;SDS011;4604;48.616;9.548;2024-01-30T03:05:40;6.80;;;4.20;;
9138;SDS011;4604;48.616;9.548;2024-01-30T03:08:07;6.43;;;4.50;;
9138;SDS011;4604;48.616;9.548;2024-01-30T03:10:33;5.43;;;4.00;;
9138;SDS011;4604;48.616;9.548;2024-01-30T03:13:01;6.47;;;4.07;;
9138;SDS011;4604;48.616;9.548;2024-01-30T03:15:28;5.03;;;3.50;;
9138;SDS011;4604;48.616;9.548;2024-01-30T03:17:54;4.80;;;3.40;;
9138;SDS011;4604;48.616;9.548;2024-01-30T03:20:21;5.90;;;3.13;;
9138;SDS011;4604;48.616;9.548;2024-01-30T03:22:47;5.77;;;3.60;;
9138;SDS011;4604;48.616;9.548;2024-01-30T03:25:14;6.13;;;3.70;;
9138;SDS011;4604;48.616;9.548;2024-01-30T03:27:40;6.30;;;4.27;;
9138;SDS011;4604;48.616;9.548;2024-01-30T03:30:09;7.43;;;4.57;;
9138;SDS011;4604;48.616;9.548;2024-01-30T03:32:36;5.57;;;3.70;;
9138;SDS011;4604;48.616;9.548;2024-01-30T03:35:02;6.37;;;3.60;;
9138;SDS011;4604;48.616;9.548;2024-01-30T03:37:29;6.00;;;4.10;;
9138;SDS011;4604;48.616;9.548;2024-01-30T03:39:56;5.57;;;4.07;;
9138;SDS011;4604;48.616;9.548;2024-01-30T03:42:22;6.80;;;4.00;;
9138;SDS011;4604;48.616;9.548;2024-01-30T03:44:49;5.13;;;3.63;;
9138;SDS011;4604;48.616;9.548;2024-01-30T03:47:18;4.43;;;3.43;;
9138;SDS011;4604;48.616;9.548;2024-01-30T03:49:45;7.63;;;3.80;;
9138;SDS011;4604;48.616;9.548;2024-01-30T03:52:11;6.13;;;3.47;;
9138;SDS011;4604;48.616;9.548;2024-01-30T03:54:38;7.30;;;3.60;;
9138;SDS011;4604;48.616;9.548;2024-01-30T03:57:05;4.93;;;3.37;;
9138;SDS011;4604;48.616;9.548;2024-01-30T03:59:34;4.97;;;3.30;;
9138;SDS011;4604;48.616;9.548;2024-01-30T04:02:01;4.60;;;3.40;;
9138;SDS011;4604;48.616;9.548;2024-01-30T04:04:29;5.10;;;3.07;;
9138;SDS011;4604;48.616;9.548;2024-01-30T04:06:56;3.57;;;2.63;;
9138;SDS011;4604;48.616;9.548;2024-01-30T04:09:22;5.07;;;3.67;;
9138;SDS011;4604;48.616;9.548;2024-01-30T04:11:49;4.60;;;3.67;;
9138;SDS011;4604;48.616;9.548;2024-01-30T04:14:16;6.33;;;3.33;;
9138;SDS011;4604;48.616;9.548;2024-01-30T04:16:42;5.40;;;3.20;;
9138;SDS011;4604;48.616;9.548;2024-01-30T04:19:09;6.00;;;3.60;;
9138;SDS011;4604;48.616;9.548;2024-01-30T04:21:37;6.40;;;4.00;;
9138;SDS011;4604;48.616;9.548;2024-01-30T04:24:03;7.13;;;4.20;;
9138;SDS011;4604;48.616;9.548;2024-01-30T04:26:31;5.67;;;4.00;;
9138;SDS011;4604;48.616;9.548;2024-01-30T04:28:57;6.67;;;3.80;;
9138;SDS011;4604;48.616;9.548;2024-01-30T04:31:24;7.10;;;3.50;;
9138;SDS011;4604;48.616;9.548;2024-01-30T04:33:50;5.40;;;3.27;;
9138;SDS011;4604;48.616;9.548;2024-01-30T04:36:17;5.30;;;3.90;;
9138;SDS011;4604;48.616;9.548;2024-01-30T04:38:45;6.70;;;3.73;;
9138;SDS011;4604;48.616;9.548;2024-01-30T04:41:11;5.40;;;3.83;;
9138;SDS011;4604;48.616;9.548;2024-01-30T04:43:38;5.77;;;4.07;;
9138;SDS011;4604;48.616;9.548;2024-01-30T04:46:05;6.27;;;3.90;;
9138;SDS011;4604;48.616;9.548;2024-01-30T04:48:31;5.53;;;3.57;;
9138;SDS011;4604;48.616;9.548;2024-01-30T04:50:58;4.67;;;3.30;;
9138;SDS011;4604;48.616;9.548;2024-01-30T04:53:30;5.17;;;3.17;;
9138;SDS011;4604;48.616;9.548;2024-01-30T04:55:58;4.23;;;3.17;;
9138;SDS011;4604;48.616;9.548;2024-01-30T04:58:25;5.10;;;3.13;;
9138;SDS011;4604;48.616;9.548;2024-01-30T05:00:52;5.40;;;3.87;;
9138;SDS011;4604;48.616;9.548;2024-01-30T05:03:18;4.73;;;3.50;;
9138;SDS011;4604;48.616;9.548;2024-01-30T05:05:47;4.37;;;2.93;;
9138;SDS011;4604;48.616;9.548;2024-01-30T05:08:14;4.40;;;2.63;;
9138;SDS011;4604;48.616;9.548;2024-01-30T05:10:41;5.33;;;3.40;;
9138;SDS011;4604;48.616;9.548;2024-01-30T05:13:09;5.23;;;3.37;;
9138;SDS011;4604;48.616;9.548;2024-01-30T05:15:38;4.27;;;3.23;;
9138;SDS011;4604;48.616;9.548;2024-01-30T05:18:05;5.23;;;2.97;;
9138;SDS011;4604;48.616;9.548;2024-01-30T05:20:32;4.33;;;2.97;;
9138;SDS011;4604;48.616;9.548;2024-01-30T05:22:58;5.83;;;3.33;;
9138;SDS011;4604;48.616;9.548;2024-01-30T05:25:25;4.77;;;3.17;;
9138;SDS011;4604;48.616;9.548;2024-01-30T05:27:52;5.80;;;3.13;;
9138;SDS011;4604;48.616;9.548;2024-01-30T05:30:21;4.27;;;3.47;;
9138;SDS011;4604;48.616;9.548;2024-01-30T05:32:48;5.77;;;3.43;;
9138;SDS011;4604;48.616;9.548;2024-01-30T05:35:15;3.77;;;2.80;;
9138;SDS011;4604;48.616;9.548;2024-01-30T05:37:41;4.50;;;2.30;;
9138;SDS011;4604;48.616;9.548;2024-01-30T05:40:08;4.60;;;2.67;;
9138;SDS011;4604;48.616;9.548;2024-01-30T05:42:36;4.70;;;2.70;;
9138;SDS011;4604;48.616;9.548;2024-01-30T05:45:03;4.17;;;2.47;;
9138;SDS011;4604;48.616;9.548;2024-01-30T05:47:31;6.37;;;4.40;;
9138;SDS011;4604;48.616;9.548;2024-01-30T05:49:58;6.20;;;3.53;;
9138;SDS011;4604;48.616;9.548;2024-01-30T05:52:24;7.67;;;3.63;;
9138;SDS011;4604;48.616;9.548;2024-01-30T05:54:51;4.43;;;3.40;;
9138;SDS011;4604;48.616;9.548;2024-01-30T05:57:17;5.33;;;3.50;;
9138;SDS011;4604;48.616;9.548;2024-01-30T05:59:44;11.10;;;5.70;;
9138;SDS011;4604;48.616;9.548;2024-01-30T06:02:12;8.00;;;5.27;;
9138;SDS011;4604;48.616;9.548;2024-01-30T06:04:40;7.80;;;5.00;;
9138;SDS011;4604;48.616;9.548;2024-01-30T06:07:07;8.63;;;5.00;;
9138;SDS011;4604;48.616;9.548;2024-01-30T06:09:33;7.57;;;5.40;;
9138;SDS011;4604;48.616;9.548;2024-01-30T06:12:00;11.20;;;6.10;;
9138;SDS011;4604;48.616;9.548;2024-01-30T06:14:26;14.13;;;6.07;;
9138;SDS011;4604;48.616;9.548;2024-01-30T06:16:53;13.10;;;6.37;;
9138;SDS011;4604;48.616;9.548;2024-01-30T06:19:20;9.93;;;6.17;;
9138;SDS011;4604;48.616;9.548;2024-01-30T06:21:47;12.97;;;6.13;;
9138;SDS011;4604;48.616;9.548;2024-01-30T06:24:14;9.83;;;5.67;;
9138;SDS011;4604;48.616;9.548;2024-01-30T06:26:41;15.53;;;6.67;;
9138;SDS011;4604;48.616;9.548;2024-01-30T06:29:07;10.60;;;6.43;;
9138;SDS011;4604;48.616;9.548;2024-01-30T06:31:39;8.73;;;5.93;;
9138;SDS011;4604;48.616;9.548;2024-01-30T06:34:06;10.53;;;6.30;;
9138;SDS011;4604;48.616;9.548;2024-01-30T06:36:32;10.13;;;6.17;;
9138;SDS011;4604;48.616;9.548;2024-01-30T06:39:00;12.33;;;6.03;;
9138;SDS011;4604;48.616;9.548;2024-01-30T06:41:27;9.30;;;5.73;;
9138;SDS011;4604;48.616;9.548;2024-01-30T06:43:53;8.63;;;5.43;;
9138;SDS011;4604;48.616;9.548;2024-01-30T06:46:20;8.17;;;5.13;;
9138;SDS011;4604;48.616;9.548;2024-01-30T06:48:46;7.83;;;5.17;;
9138;SDS011;4604;48.616;9.548;2024-01-30T06:51:13;7.93;;;4.97;;
9138;SDS011;4604;48.616;9.548;2024-01-30T06:53:40;6.50;;;4.50;;
9138;SDS011;4604;48.616;9.548;2024-01-30T06:56:08;6.53;;;4.07;;
9138;SDS011;4604;48.616;9.548;2024-01-30T06:58:34;6.47;;;4.03;;
9138;SDS011;4604;48.616;9.548;2024-01-30T07:01:01;6.67;;;4.73;;
9138;SDS011;4604;48.616;9.548;2024-01-30T07:03:27;9.33;;;4.77;;
9138;SDS011;4604;48.616;9.548;2024-01-30T07:05:54;7.00;;;4.93;;
9138;SDS011;4604;48.616;9.548;2024-01-30T07:08:20;7.87;;;5.20;;
9138;SDS011;4604;48.616;9.548;2024-01-30T07:10:47;10.57;;;5.67;;
9138;SDS011;4604;48.616;9.548;2024-01-30T07:13:15;6.37;;;4.70;;
9138;SDS011;4604;48.616;9.548;2024-01-30T07:15:42;7.17;;;4.33;;
9138;SDS011;4604;48.616;9.548;2024-01-30T07:18:09;5.30;;;4.00;;
9138;SDS011;4604;48.616;9.548;2024-01-30T07:20:35;8.63;;;4.53;;
9138;SDS011;4604;48.616;9.548;2024-01-30T07:23:03;5.77;;;4.13;;
9138;SDS011;4604;48.616;9.548;2024-01-30T07:25:30;6.33;;;4.20;;
9138;SDS011;4604;48.616;9.548;2024-01-30T07:27:56;9.47;;;4.47;;
9138;SDS011;4604;48.616;9.548;2024-01-30T07:30:24;8.37;;;5.13;;
9138;SDS011;4604;48.616;9.548;2024-01-30T07:32:51;5.90;;;4.33;;
9138;SDS011;4604;48.616;9.548;2024-01-30T07:35:17;7.37;;;4.30;;
9138;SDS011;4604;48.616;9.548;2024-01-30T07:37:44;5.80;;;4.27;;
9138;SDS011;4604;48.616;9.548;2024-01-30T07:40:11;7.17;;;5.20;;
9138;SDS011;4604;48.616;9.548;2024-01-30T07:42:37;7.10;;;5.10;;
9138;SDS011;4604;48.616;9.548;2024-01-30T07:45:04;7.20;;;5.23;;
9138;SDS011;4604;48.616;9.548;2024-01-30T07:47:32;7.07;;;4.63;;
9138;SDS011;4604;48.616;9.548;2024-01-30T07:49:59;6.33;;;4.60;;
9138;SDS011;4604;48.616;9.548;2024-01-30T07:52:26;7.43;;;4.60;;
9138;SDS011;4604;48.616;9.548;2024-01-30T07:54:52;8.97;;;4.50;;
9138;SDS011;4604;48.616;9.548;2024-01-30T07:57:20;4.53;;;3.43;;
9138;SDS011;4604;48.616;9.548;2024-01-30T07:59:46;5.33;;;4.27;;
9138;SDS011;4604;48.616;9.548;2024-01-30T08:02:13;6.77;;;4.80;;
9138;SDS011;4604;48.616;9.548;2024-01-30T08:04:43;5.23;;;3.87;;
9138;SDS011;4604;48.616;9.548;2024-01-30T08:07:13;5.73;;;3.93;;
9138;SDS011;4604;48.616;9.548;2024-01-30T08:09:40;4.87;;;3.97;;
9138;SDS011;4604;48.616;9.548;2024-01-30T08:12:06;7.73;;;4.47;;
9138;SDS011;4604;48.616;9.548;2024-01-30T08:14:33;5.17;;;3.90;;
9138;SDS011;4604;48.616;9.548;2024-01-30T08:17:00;6.90;;;3.80;;
9138;SDS011;4604;48.616;9.548;2024-01-30T08:19:26;4.43;;;3.40;;
9138;SDS011;4604;48.616;9.548;2024-01-30T08:21:54;5.53;;;3.57;;
9138;SDS011;4604;48.616;9.548;2024-01-30T08:24:21;7.13;;;4.37;;
9138;SDS011;4604;48.616;9.548;2024-01-30T08:26:47;9.07;;;5.60;;
9138;SDS011;4604;48.616;9.548;2024-01-30T08:29:14;7.70;;;4.83;;
9138;SDS011;4604;48.616;9.548;2024-01-30T08:31:40;11.77;;;7.83;;
9138;SDS011;4604;48.616;9.548;2024-01-30T08:34:07;12.63;;;8.17;;
9138;SDS011;4604;48.616;9.548;2024-01-30T08:36:33;15.30;;;8.83;;
9138;SDS011;4604;48.616;9.548;2024-01-30T08:39:01;15.43;;;8.97;;
9138;SDS011;4604;48.616;9.548;2024-01-30T08:41:30;15.53;;;9.60;;
9138;SDS011;4604;48.616;9.548;2024-01-30T08:44:02;16.80;;;9.47;;
9138;SDS011;4604;48.616;9.548;2024-01-30T08:46:33;17.33;;;9.57;;
9138;SDS011;4604;48.616;9.548;2024-01-30T08:49:00;12.13;;;8.17;;
9138;SDS011;4604;48.616;9.548;2024-01-30T08:51:26;11.40;;;7.53;;
9138;SDS011;4604;48.616;9.548;2024-01-30T08:53:53;10.87;;;7.87;;
9138;SDS011;4604;48.616;9.548;2024-01-30T08:56:21;14.07;;;8.03;;
9138;SDS011;4604;48.616;9.548;2024-01-30T08:58:47;10.90;;;7.37;;
9138;SDS011;4604;48.616;9.548;2024-01-30T09:01:14;10.47;;;6.90;;
9138;SDS011;4604;48.616;9.548;2024-01-30T09:03:41;13.33;;;7.07;;
9138;SDS011;4604;48.616;9.548;2024-01-30T09:06:10;8.80;;;6.27;;
9138;SDS011;4604;48.616;9.548;2024-01-30T09:08:36;12.20;;;7.60;;
9138;SDS011;4604;48.616;9.548;2024-01-30T09:11:08;9.57;;;6.80;;
9138;SDS011;4604;48.616;9.548;2024-01-30T09:13:36;9.87;;;7.00;;
9138;SDS011;4604;48.616;9.548;2024-01-30T09:16:03;12.43;;;8.13;;
9138;SDS011;4604;48.616;9.548;2024-01-30T09:18:30;10.70;;;7.27;;
9138;SDS011;4604;48.616;9.548;2024-01-30T09:20:56;8.87;;;6.97;;
9138;SDS011;4604;48.616;9.548;2024-01-30T09:23:23;13.93;;;8.77;;
9138;SDS011;4604;48.616;9.548;2024-01-30T09:25:50;14.90;;;9.33;;
9138;SDS011;4604;48.616;9.548;2024-01-30T09:28:17;13.80;;;8.90;;
9138;SDS011;4604;48.616;9.548;2024-01-30T09:30:45;14.10;;;8.93;;
9138;SDS011;4604;48.616;9.548;2024-01-30T09:33:12;20.43;;;11.77;;
9138;SDS011;4604;48.616;9.548;2024-01-30T09:35:38;25.93;;;13.60;;
9138;SDS011;4604;48.616;9.548;2024-01-30T09:38:05;24.73;;;13.37;;
9138;SDS011;4604;48.616;9.548;2024-01-30T09:40:31;19.70;;;11.30;;
9138;SDS011;4604;48.616;9.548;2024-01-30T09:42:58;18.07;;;11.47;;
9138;SDS011;4604;48.616;9.548;2024-01-30T09:45:26;21.40;;;11.90;;
9138;SDS011;4604;48.616;9.548;2024-01-30T09:47:54;20.17;;;11.53;;
9138;SDS011;4604;48.616;9.548;2024-01-30T09:50:20;18.13;;;11.40;;
9138;SDS011;4604;48.616;9.548;2024-01-30T09:52:47;17.43;;;10.77;;
9138;SDS011;4604;48.616;9.548;2024-01-30T09:55:14;18.60;;;10.50;;
9138;SDS011;4604;48.616;9.548;2024-01-30T09:57:42;20.10;;;11.57;;
9138;SDS011;4604;48.616;9.548;2024-01-30T10:00:09;20.97;;;11.67;;
9138;SDS011;4604;48.616;9.548;2024-01-30T10:02:36;26.10;;;12.00;;
9138;SDS011;4604;48.616;9.548;2024-01-30T10:05:05;18.40;;;11.27;;
9138;SDS011;4604;48.616;9.548;2024-01-30T10:07:31;16.20;;;10.57;;
9138;SDS011;4604;48.616;9.548;2024-01-30T10:09:59;13.93;;;9.20;;
9138;SDS011;4604;48.616;9.548;2024-01-30T10:12:26;12.70;;;8.57;;
9138;SDS011;4604;48.616;9.548;2024-01-30T10:14:53;15.13;;;8.40;;
9138;SDS011;4604;48.616;9.548;2024-01-30T10:17:24;12.57;;;8.13;;
9138;SDS011;4604;48.616;9.548;2024-01-30T10:19:51;12.27;;;8.60;;
9138;SDS011;4604;48.616;9.548;2024-01-30T10:22:19;10.77;;;7.53;;
9138;SDS011;4604;48.616;9.548;2024-01-30T10:24:46;14.60;;;7.70;;
9138;SDS011;4604;48.616;9.548;2024-01-30T10:27:14;13.10;;;8.23;;
9138;SDS011;4604;48.616;9.548;2024-01-30T10:29:40;10.77;;;7.23;;
9138;SDS011;4604;48.616;9.548;2024-01-30T10:32:07;13.43;;;7.80;;
9138;SDS011;4604;48.616;9.548;2024-01-30T10:34:34;12.07;;;7.67;;
9138;SDS011;4604;48.616;9.548;2024-01-30T10:37:05;11.73;;;7.70;;
9138;SDS011;4604;48.616;9.548;2024-01-30T10:39:39;13.37;;;7.67;;
9138;SDS011;4604;48.616;9.548;2024-01-30T10:42:07;13.07;;;8.30;;
9138;SDS011;4604;48.616;9.548;2024-01-30T10:44:41;14.10;;;8.33;;
9138;SDS011;4604;48.616;9.548;2024-01-30T10:47:14;16.27;;;9.23;;
9138;SDS011;4604;48.616;9.548;2024-01-30T10:49:46;13.50;;;8.47;;
9138;SDS011;4604;48.616;9.548;2024-01-30T10:52:13;22.37;;;9.10;;
9138;SDS011;4604;48.616;9.548;2024-01-30T10:54:43;12.13;;;8.53;;
9138;SDS011;4604;48.616;9.548;2024-01-30T10:57:10;11.80;;;7.67;;
9138;SDS011;4604;48.616;9.548;2024-01-30T10:59:38;14.40;;;8.20;;
9138;SDS011;4604;48.616;9.548;2024-01-30T11:02:06;13.00;;;8.07;;
9138;SDS011;4604;48.616;9.548;2024-01-30T11:04:36;11.43;;;7.40;;
9138;SDS011;4604;48.616;9.548;2024-01-30T11:07:13;14.73;;;7.87;;
9138;SDS011;4604;48.616;9.548;2024-01-30T11:09:40;12.37;;;8.43;;
9138;SDS011;4604;48.616;9.548;2024-01-30T11:12:13;13.43;;;8.00;;
9138;SDS011;4604;48.616;9.548;2024-01-30T11:14:39;13.40;;;8.27;;
9138;SDS011;4604;48.616;9.548;2024-01-30T11:17:06;9.80;;;6.97;;
9138;SDS011;4604;48.616;9.548;2024-01-30T11:19:32;12.53;;;7.07;;
9138;SDS011;4604;48.616;9.548;2024-01-30T11:21:59;10.97;;;6.63;;
9138;SDS011;4604;48.616;9.548;2024-01-30T11:24:26;10.23;;;7.10;;
9138;SDS011;4604;48.616;9.548;2024-01-30T11:26:55;8.93;;;6.50;;
9138;SDS011;4604;48.616;9.548;2024-01-30T11:29:25;7.93;;;5.50;;
9138;SDS011;4604;48.616;9.548;2024-01-30T11:31:53;9.97;;;6.27;;
9138;SDS011;4604;48.616;9.548;2024-01-30T11:34:20;10.70;;;6.80;;
9138;SDS011;4604;48.616;9.548;2024-01-30T11:36:48;9.10;;;6.17;;
9138;SDS011;4604;48.616;9.548;2024-01-30T11:39:20;11.47;;;6.63;;
9138;SDS011;4604;48.616;9.548;2024-01-30T11:41:47;9.50;;;6.63;;
9138;SDS011;4604;48.616;9.548;2024-01-30T11:44:17;8.77;;;6.20;;
9138;SDS011;4604;48.616;9.548;2024-01-30T11:46:46;8.93;;;6.17;;
9138;SDS011;4604;48.616;9.548;2024-01-30T11:49:14;9.67;;;5.50;;
9138;SDS011;4604;48.616;9.548;2024-01-30T11:51:40;8.50;;;5.60;;
9138;SDS011;4604;48.616;9.548;2024-01-30T11:54:07;8.47;;;6.33;;
9138;SDS011;4604;48.616;9.548;2024-01-30T11:56:34;10.60;;;6.30;;
9138;SDS011;4604;48.616;9.548;2024-01-30T11:59:02;10.00;;;6.80;;
9138;SDS011;4604;48.616;9.548;2024-01-30T12:01:29;10.73;;;6.77;;
9138;SDS011;4604;48.616;9.548;2024-01-30T12:03:58;11.67;;;7.07;;
9138;SDS011;4604;48.616;9.548;2024-01-30T12:06:25;10.33;;;6.80;;
9138;SDS011;4604;48.616;9.548;2024-01-30T12:08:56;12.17;;;7.00;;
9138;SDS011;4604;48.616;9.548;2024-01-30T12:11:29;15.43;;;7.77;;
9138;SDS011;4604;48.616;9.548;2024-01-30T12:13:56;9.60;;;6.37;;
9138;SDS011;4604;48.616;9.548;2024-01-30T12:16:23;10.23;;;6.60;;
9138;SDS011;4604;48.616;9.548;2024-01-30T12:18:49;11.80;;;6.93;;
9138;SDS011;4604;48.616;9.548;2024-01-30T12:21:27;11.40;;;6.53;;
9138;SDS011;4604;48.616;9.548;2024-01-30T12:23:56;10.40;;;6.87;;
9138;SDS011;4604;48.616;9.548;2024-01-30T12:26:23;11.70;;;6.83;;
9138;SDS011;4604;48.616;9.548;2024-01-30T12:28:50;12.20;;;6.80;;
9138;SDS011;4604;48.616;9.548;2024-01-30T12:31:17;8.03;;;5.43;;
9138;SDS011;4604;48.616;9.548;2024-01-30T12:33:43;8.13;;;4.90;;
9138;SDS011;4604;48.616;9.548;2024-01-30T12:36:12;9.07;;;5.70;;
9138;SDS011;4604;48.616;9.548;2024-01-30T12:38:39;10.63;;;6.37;;
9138;SDS011;4604;48.616;9.548;2024-01-30T12:41:06;9.30;;;5.30;;
9138;SDS011;4604;48.616;9.548;2024-01-30T12:43:35;9.40;;;5.63;;
9138;SDS011;4604;48.616;9.548;2024-01-30T12:46:02;8.67;;;5.00;;
9138;SDS011;4604;48.616;9.548;2024-01-30T12:48:29;6.87;;;4.43;;
9138;SDS011;4604;48.616;9.548;2024-01-30T12:50:55;7.00;;;4.40;;
9138;SDS011;4604;48.616;9.548;2024-01-30T12:53:23;7.27;;;4.20;;
9138;SDS011;4604;48.616;9.548;2024-01-30T12:55:50;6.00;;;4.20;;
9138;SDS011;4604;48.616;9.548;2024-01-30T12:58:17;8.87;;;5.07;;
9138;SDS011;4604;48.616;9.548;2024-01-30T13:00:44;6.53;;;4.77;;
9138;SDS011;4604;48.616;9.548;2024-01-30T13:03:10;6.93;;;4.27;;
9138;SDS011;4604;48.616;9.548;2024-01-30T13:05:37;4.70;;;3.60;;
9138;SDS011;4604;48.616;9.548;2024-01-30T13:08:04;7.37;;;3.77;;
9138;SDS011;4604;48.616;9.548;2024-01-30T13:10:32;6.13;;;4.20;;
9138;SDS011;4604;48.616;9.548;2024-01-30T13:12:59;5.57;;;3.50;;
9138;SDS011;4604;48.616;9.548;2024-01-30T13:15:25;7.20;;;4.00;;
9138;SDS011;4604;48.616;9.548;2024-01-30T13:17:52;8.03;;;3.47;;
9138;SDS011;4604;48.616;9.548;2024-01-30T13:20:19;6.20;;;3.80;;
9138;SDS011;4604;48.616;9.548;2024-01-30T13:22:47;6.20;;;4.23;;
9138;SDS011;4604;48.616;9.548;2024-01-30T13:25:14;4.80;;;3.80;;
9138;SDS011;4604;48.616;9.548;2024-01-30T13:27:42;5.13;;;3.87;;
9138;SDS011;4604;48.616;9.548;2024-01-30T13:30:09;6.73;;;3.80;;
9138;SDS011;4604;48.616;9.548;2024-01-30T13:32:36;5.37;;;3.93;;
9138;SDS011;4604;48.616;9.548;2024-01-30T13:35:03;6.70;;;4.43;;
9138;SDS011;4604;48.616;9.548;2024-01-30T13:37:30;6.77;;;4.27;;
9138;SDS011;4604;48.616;9.548;2024-01-30T13:39:57;7.00;;;4.30;;
9138;SDS011;4604;48.616;9.548;2024-01-30T13:42:23;5.50;;;2.90;;
9138;SDS011;4604;48.616;9.548;2024-01-30T13:44:51;6.07;;;2.93;;
9138;SDS011;4604;48.616;9.548;2024-01-30T13:47:18;8.90;;;2.83;;
9138;SDS011;4604;48.616;9.548;2024-01-30T13:49:46;6.43;;;2.60;;
9138;SDS011;4604;48.616;9.548;2024-01-30T13:52:13;3.37;;;2.73;;
9138;SDS011;4604;48.616;9.548;2024-01-30T13:54:39;6.77;;;2.57;;
9138;SDS011;4604;48.616;9.548;2024-01-30T13:57:06;8.20;;;2.77;;
9138;SDS011;4604;48.616;9.548;2024-01-30T13:59:33;6.17;;;3.23;;
9138;SDS011;4604;48.616;9.548;2024-01-30T14:02:01;4.70;;;2.80;;
9138;SDS011;4604;48.616;9.548;2024-01-30T14:04:28;4.60;;;2.73;;
9138;SDS011;4604;48.616;9.548;2024-01-30T14:06:54;6.53;;;3.30;;
9138;SDS011;4604;48.616;9.548;2024-01-30T14:09:21;3.93;;;3.07;;
9138;SDS011;4604;48.616;9.548;2024-01-30T14:11:48;3.83;;;2.70;;
9138;SDS011;4604;48.616;9.548;2024-01-30T14:14:14;3.43;;;2.90;;
9138;SDS011;4604;48.616;9.548;2024-01-30T14:16:41;4.57;;;3.00;;
9138;SDS011;4604;48.616;9.548;2024-01-30T14:19:09;7.13;;;2.97;;
9138;SDS011;4604;48.616;9.548;2024-01-30T14:21:35;4.80;;;2.93;;
9138;SDS011;4604;48.616;9.548;2024-01-30T14:24:03;4.87;;;2.80;;
9138;SDS011;4604;48.616;9.548;2024-01-30T14:26:30;7.47;;;3.03;;
9138;SDS011;4604;48.616;9.548;2024-01-30T14:28:57;6.80;;;3.40;;
9138;SDS011;4604;48.616;9.548;2024-01-30T14:31:23;4.27;;;2.80;;
9138;SDS011;4604;48.616;9.548;2024-01-30T14:33:50;4.03;;;2.80;;
9138;SDS011;4604;48.616;9.548;2024-01-30T14:36:18;6.07;;;3.50;;
9138;SDS011;4604;48.616;9.548;2024-01-30T14:38:45;4.70;;;2.73;;
9138;SDS011;4604;48.616;9.548;2024-01-30T14:41:12;5.47;;;3.10;;
9138;SDS011;4604;48.616;9.548;2024-01-30T14:43:38;5.17;;;3.60;;
9138;SDS011;4604;48.616;9.548;2024-01-30T14:46:05;5.33;;;3.77;;
9138;SDS011;4604;48.616;9.548;2024-01-30T14:48:32;6.50;;;3.63;;
9138;SDS011;4604;48.616;9.548;2024-01-30T14:50:59;6.77;;;3.73;;
9138;SDS011;4604;48.616;9.548;2024-01-30T14:53:27;6.83;;;4.17;;
9138;SDS011;4604;48.616;9.548;2024-01-30T14:55:53;5.43;;;3.63;;
9138;SDS011;4604;48.616;9.548;2024-01-30T14:58:20;6.43;;;3.53;;
9138;SDS011;4604;48.616;9.548;2024-01-30T15:00:47;6.07;;;3.27;;
9138;SDS011;4604;48.616;9.548;2024-01-30T15:03:13;5.70;;;3.20;;
9138;SDS011;4604;48.616;9.548;2024-01-30T15:05:40;4.57;;;2.93;;
9138;SDS011;4604;48.616;9.548;2024-01-30T15:08:06;4.60;;;3.00;;
9138;SDS011;4604;48.616;9.548;2024-01-30T15:10:34;4.00;;;2.90;;